Time;durP1;ratioP1;P1;durP2;ratioP2;P2;SDS_P1;SDS_P2;PMS_P1;PMS_P2;Temp;Humidity;BMP_temperature;BMP_pressure;BME280_temperature;BME280_humidity;BME280_pressure;Samples;Min_cycle;Max_cycle;Signal;HPM_P1;HPM_P2
2023/04/12 00:00:34;;;;;;;10.70;1.35;;;4.20;99.90;;;;;;5133650;27;20049;-73
2023/04/12 00:03:02;;;;;;;7.07;1.77;;;4.20;99.90;;;;;;5132721;27;20020;-72
2023/04/12 00:05:29;;;;;;;10.82;2.10;;;4.20;99.90;;;;;;5115212;27;20019;-72
2023/04/12 00:07:55;;;;;;;13.32;2.95;;;4.30;99.90;;;;;;5133343;27;20044;-72
2023/04/12 00:10:21;;;;;;;7.65;2.08;;;4.20;99.90;;;;;;5133689;27;20123;-73
2023/04/12 00:12:48;;;;;;;12.02;1.95;;;4.30;99.90;;;;;;5114272;27;20027;-73
2023/04/12 00:15:14;;;;;;;11.05;2.00;;;4.20;99.90;;;;;;5132210;27;20034;-72
2023/04/12 00:17:40;;;;;;;7.60;1.80;;;4.30;99.90;;;;;;5133329;27;20023;-78
2023/04/12 00:20:11;;;;;;;8.20;2.28;;;4.30;99.90;;;;;;5133174;27;20042;-73
2023/04/12 00:22:43;;;;;;;6.93;2.05;;;4.30;99.90;;;;;;5133417;27;20040;-72
2023/04/12 00:25:09;;;;;;;9.05;1.92;;;4.30;99.90;;;;;;5133238;27;20034;-72
2023/04/12 00:27:35;;;;;;;11.50;1.85;;;4.30;99.90;;;;;;5132977;27;20034;-73
2023/04/12 00:30:02;;;;;;;8.07;1.67;;;4.30;99.90;;;;;;5132859;27;20360;-73
2023/04/12 00:32:28;;;;;;;9.73;1.80;;;4.30;99.90;;;;;;5133464;27;20035;-73
2023/04/12 00:34:54;;;;;;;10.50;1.85;;;4.30;99.90;;;;;;5133164;27;20019;-72
2023/04/12 00:37:20;;;;;;;11.13;1.60;;;4.30;99.90;;;;;;5133393;27;20110;-76
2023/04/12 00:39:45;;;;;;;8.38;1.70;;;4.30;99.90;;;;;;5133010;27;20035;-73
2023/04/12 00:42:11;;;;;;;6.25;1.30;;;4.30;99.90;;;;;;5132953;27;20390;-74
2023/04/12 00:44:37;;;;;;;3.47;1.00;;;4.30;99.90;;;;;;5133258;27;20019;-74
2023/04/12 00:47:04;;;;;;;5.57;1.67;;;4.20;99.90;;;;;;5132656;27;20027;-73
2023/04/12 00:49:30;;;;;;;4.82;1.35;;;4.20;99.90;;;;;;5133310;27;20019;-74
2023/04/12 00:52:03;;;;;;;4.03;1.50;;;4.30;99.90;;;;;;5132959;27;20123;-74
2023/04/12 00:54:35;;;;;;;;;;;4.20;99.90;;;;;;5133793;27;20027;-74
2023/04/12 00:57:01;;;;;;;6.82;1.10;;;4.20;99.90;;;;;;5132820;27;19982;-74
2023/04/12 00:59:27;;;;;;;6.13;1.83;;;4.20;99.90;;;;;;5132980;27;20098;-74
2023/04/12 01:01:56;;;;;;;6.90;1.38;;;4.20;99.90;;;;;;5114228;27;20092;-73
2023/04/12 01:04:25;;;;;;;5.40;1.65;;;4.20;99.90;;;;;;5132904;27;20438;-73
2023/04/12 01:07:28;;;;;;;5.88;1.33;;;4.10;99.90;;;;;;5132749;27;20056;-73
2023/04/12 01:10:13;;;;;;;6.03;1.15;;;4.10;99.90;;;;;;5114576;27;20023;-73
2023/04/12 01:12:51;;;;;;;6.38;1.30;;;4.10;99.90;;;;;;5133176;27;20019;-75
2023/04/12 01:15:18;;;;;;;6.65;1.25;;;4.10;99.90;;;;;;5132810;27;20023;-73
2023/04/12 01:18:07;;;;;;;3.72;1.02;;;4.10;99.90;;;;;;5132404;27;20035;-74
2023/04/12 01:20:43;;;;;;;3.65;1.00;;;4.10;99.90;;;;;;5132922;27;20039;-73
2023/04/12 01:23:46;;;;;;;5.22;1.13;;;4.00;99.90;;;;;;5114385;27;20124;-73
2023/04/12 01:26:33;;;;;;;;;;;4.00;99.90;;;;;;5132458;27;20170;-74
2023/04/12 01:29:03;;;;;;;2.88;1.20;;;4.00;99.90;;;;;;5132382;27;19911;-74
2023/04/12 01:31:31;;;;;;;6.55;1.00;;;4.00;99.90;;;;;;5132373;27;20027;-74
2023/04/12 01:33:59;;;;;;;5.68;1.30;;;4.00;99.90;;;;;;5132074;27;20019;-73
2023/04/12 01:36:27;;;;;;;3.70;1.00;;;4.00;99.90;;;;;;5132344;27;20038;-73
2023/04/12 01:38:53;;;;;;;5.30;1.08;;;3.90;99.90;;;;;;5114069;27;20039;-74
2023/04/12 01:41:20;;;;;;;3.47;1.15;;;3.90;99.90;;;;;;5114097;27;20121;-73
2023/04/12 01:43:47;;;;;;;2.97;0.80;;;3.80;99.90;;;;;;5132358;27;20023;-74
2023/04/12 01:46:15;;;;;;;4.13;0.95;;;3.80;99.90;;;;;;5133009;27;20042;-74
2023/04/12 01:48:52;;;;;;;4.93;0.88;;;3.80;99.90;;;;;;5132271;27;20023;-78
2023/04/12 01:51:40;;;;;;;2.90;0.90;;;3.90;99.90;;;;;;5132536;27;20034;-74
2023/04/12 01:54:10;;;;;;;4.18;0.80;;;3.80;99.90;;;;;;5113488;27;20023;-73
2023/04/12 01:56:43;;;;;;;2.33;1.00;;;3.80;99.90;;;;;;5132472;27;20148;-73
2023/04/12 01:59:11;;;;;;;3.42;0.77;;;3.90;99.90;;;;;;5132710;27;20046;-73
2023/04/12 02:01:37;;;;;;;5.10;1.10;;;3.80;99.90;;;;;;5132634;27;20039;-74
2023/04/12 02:04:05;;;;;;;8.30;1.10;;;3.80;99.90;;;;;;5113447;27;20086;-73
2023/04/12 02:06:33;;;;;;;3.63;0.90;;;3.80;99.90;;;;;;5131798;27;20019;-73
2023/04/12 02:09:07;;;;;;;4.88;1.30;;;3.90;99.90;;;;;;5131516;27;20031;-73
2023/04/12 02:11:33;;;;;;;5.18;1.15;;;3.90;99.90;;;;;;5132646;27;20054;-74
2023/04/12 02:13:59;;;;;;;5.22;1.20;;;3.90;99.90;;;;;;5131211;27;20027;-74
2023/04/12 02:16:28;;;;;;;4.13;0.93;;;3.90;99.90;;;;;;5131927;27;20025;-73
2023/04/12 02:18:56;;;;;;;5.18;1.17;;;3.90;99.90;;;;;;5131166;27;20035;-72
2023/04/12 02:21:22;;;;;;;4.88;1.00;;;3.90;99.90;;;;;;5131972;27;20054;-73
2023/04/12 02:23:47;;;;;;;5.25;0.82;;;3.80;99.90;;;;;;5131206;27;20424;-73
2023/04/12 02:26:13;;;;;;;5.68;1.00;;;3.80;99.90;;;;;;5113479;27;20423;-72
2023/04/12 02:28:39;;;;;;;7.55;0.98;;;3.90;99.90;;;;;;5113344;28;20091;-73
2023/04/12 02:31:05;;;;;;;4.68;1.38;;;3.80;99.90;;;;;;5112489;27;20109;-73
2023/04/12 02:33:32;;;;;;;4.75;1.20;;;3.80;99.90;;;;;;5131561;27;20030;-73
2023/04/12 02:35:58;;;;;;;5.50;0.95;;;3.80;99.90;;;;;;5130720;27;20489;-73
2023/04/12 02:38:24;;;;;;;3.22;1.08;;;3.80;99.90;;;;;;5130233;27;20099;-72
2023/04/12 02:40:50;;;;;;;3.72;0.90;;;3.80;99.90;;;;;;5130659;27;20039;-72
2023/04/12 02:43:16;;;;;;;5.55;1.10;;;3.80;99.90;;;;;;5131283;27;20027;-72
2023/04/12 02:45:41;;;;;;;4.15;1.00;;;3.80;99.90;;;;;;5131457;27;20530;-73
2023/04/12 02:48:07;;;;;;;7.15;1.33;;;3.70;99.90;;;;;;5130750;27;20023;-72
2023/04/12 02:50:33;;;;;;;3.90;0.73;;;3.70;99.90;;;;;;5112799;28;20026;-74
2023/04/12 02:52:59;;;;;;;3.80;0.75;;;3.70;99.90;;;;;;5130715;28;20452;-73
2023/04/12 02:55:25;;;;;;;3.78;1.02;;;3.60;99.90;;;;;;5131270;28;20027;-74
2023/04/12 02:57:52;;;;;;;3.97;1.20;;;3.60;99.90;;;;;;5130685;28;20080;-74
2023/04/12 03:00:18;;;;;;;6.03;1.55;;;3.70;99.90;;;;;;5112675;28;20043;-73
2023/04/12 03:02:44;;;;;;;5.22;0.88;;;3.60;99.90;;;;;;5112728;28;20027;-73
2023/04/12 03:05:11;;;;;;;5.00;1.10;;;3.70;99.90;;;;;;5112120;28;20094;-73
2023/04/12 03:07:37;;;;;;;4.65;0.75;;;3.60;99.90;;;;;;5131170;28;20121;-73
2023/04/12 03:10:06;;;;;;;4.28;1.30;;;3.50;99.90;;;;;;5130214;28;20047;-73
2023/04/12 03:12:32;;;;;;;2.17;0.80;;;3.60;99.90;;;;;;5131250;28;20023;-73
2023/04/12 03:14:58;;;;;;;4.53;1.10;;;3.60;99.90;;;;;;5130247;28;20019;-73
2023/04/12 03:17:23;;;;;;;3.22;0.90;;;3.60;99.90;;;;;;5131342;28;20035;-73
2023/04/12 03:19:50;;;;;;;4.22;1.15;;;3.60;99.90;;;;;;5130136;28;20528;-75
2023/04/12 03:22:15;;;;;;;3.45;1.33;;;3.60;99.90;;;;;;5112262;27;20027;-74
2023/04/12 03:24:43;;;;;;;5.03;1.38;;;3.60;99.90;;;;;;5131176;28;20365;-73
2023/04/12 03:27:09;;;;;;;5.32;1.33;;;3.60;99.90;;;;;;5112026;28;20080;-72
2023/04/12 03:29:36;;;;;;;4.53;1.00;;;3.60;99.90;;;;;;5130748;28;20039;-72
2023/04/12 03:32:01;;;;;;;6.68;1.05;;;3.60;99.90;;;;;;5130501;28;20027;-72
2023/04/12 03:34:33;;;;;;;5.82;1.00;;;3.70;99.90;;;;;;5130783;28;20425;-72
2023/04/12 03:37:01;;;;;;;3.80;1.20;;;3.70;99.90;;;;;;5130336;28;20063;-73
2023/04/12 03:39:27;;;;;;;5.70;1.00;;;3.70;99.90;;;;;;5130916;28;20038;-72
2023/04/12 03:41:53;;;;;;;5.63;1.00;;;3.70;99.90;;;;;;5130354;28;20109;-73
2023/04/12 03:44:20;;;;;;;5.88;1.30;;;3.70;99.90;;;;;;5130901;28;20401;-72
2023/04/12 03:46:47;;;;;;;4.35;0.90;;;3.70;99.90;;;;;;5130599;28;20437;-72
2023/04/12 03:49:13;;;;;;;5.15;1.23;;;3.70;99.90;;;;;;5132633;27;20021;-73
2023/04/12 03:51:42;;;;;;;4.63;1.17;;;3.70;99.90;;;;;;5134828;27;20058;-72
2023/04/12 03:54:09;;;;;;;6.38;1.30;;;3.60;99.90;;;;;;5133982;27;20386;-72
2023/04/12 03:56:35;;;;;;;5.45;1.13;;;3.70;99.90;;;;;;5134687;27;20027;-73
2023/04/12 03:59:01;;;;;;;4.30;1.40;;;3.70;99.90;;;;;;5134042;27;20026;-74
2023/04/12 04:01:27;;;;;;;11.27;1.67;;;3.60;99.90;;;;;;5134584;27;20114;-73
2023/04/12 04:03:52;;;;;;;5.90;1.35;;;3.70;99.90;;;;;;5115669;27;20058;-74
2023/04/12 04:06:18;;;;;;;5.35;1.33;;;3.60;99.90;;;;;;5115873;27;20105;-73
2023/04/12 04:08:44;;;;;;;5.03;1.13;;;3.60;99.90;;;;;;5134048;27;20452;-72
2023/04/12 04:11:11;;;;;;;4.75;1.13;;;3.60;99.90;;;;;;5115360;27;20023;-73
2023/04/12 04:13:37;;;;;;;6.70;1.08;;;3.60;99.90;;;;;;5115658;27;20027;-72
2023/04/12 04:16:05;;;;;;;5.20;1.52;;;3.70;99.90;;;;;;5133820;27;20034;-72
2023/04/12 04:18:31;;;;;;;6.07;1.70;;;3.70;99.90;;;;;;5133957;27;20023;-72
2023/04/12 04:20:57;;;;;;;7.05;1.23;;;3.70;99.90;;;;;;5133493;27;20039;-73
2023/04/12 04:23:23;;;;;;;7.13;1.30;;;3.70;99.90;;;;;;5134098;27;20106;-72
2023/04/12 04:25:52;;;;;;;6.63;1.30;;;3.70;99.90;;;;;;5134278;27;20069;-73
2023/04/12 04:28:17;;;;;;;5.00;1.35;;;3.70;99.90;;;;;;5115582;27;20065;-72
2023/04/12 04:30:44;;;;;;;6.68;1.67;;;3.70;99.90;;;;;;5115965;27;20062;-73
2023/04/12 04:33:11;;;;;;;7.90;1.13;;;3.70;99.90;;;;;;5134011;27;20106;-72
2023/04/12 04:35:42;;;;;;;5.60;1.30;;;3.70;99.90;;;;;;5134445;27;20357;-73
2023/04/12 04:38:09;;;;;;;5.90;1.45;;;3.80;99.90;;;;;;5133574;27;20123;-73
2023/04/12 04:40:37;;;;;;;3.60;1.08;;;3.80;99.90;;;;;;5133839;27;20541;-73
2023/04/12 04:43:03;;;;;;;10.50;1.33;;;3.80;99.90;;;;;;5133758;27;20088;-73
2023/04/12 04:45:31;;;;;;;7.13;1.13;;;3.80;99.90;;;;;;5134295;27;20016;-73
2023/04/12 04:47:57;;;;;;;7.65;1.58;;;3.80;99.90;;;;;;5133303;27;20022;-73
2023/04/12 04:50:25;;;;;;;7.68;1.10;;;3.80;99.90;;;;;;5133850;27;20087;-73
2023/04/12 04:52:51;;;;;;;5.88;1.00;;;3.80;99.90;;;;;;5133766;27;20114;-73
2023/04/12 04:55:17;;;;;;;8.10;1.83;;;3.90;99.90;;;;;;5133086;27;20050;-73
2023/04/12 04:57:43;;;;;;;5.13;1.50;;;3.80;99.90;;;;;;5133765;27;20034;-73
2023/04/12 05:00:10;;;;;;;6.70;1.33;;;3.90;99.90;;;;;;5132100;27;20035;-73
2023/04/12 05:02:41;;;;;;;8.55;2.17;;;3.90;99.90;;;;;;5133614;27;20037;-73
2023/04/12 05:05:08;;;;;;;8.07;1.48;;;3.90;99.90;;;;;;5132923;27;20023;-73
2023/04/12 05:07:35;;;;;;;10.68;1.65;;;4.00;99.90;;;;;;5133207;27;20473;-73
2023/04/12 05:10:02;;;;;;;6.93;1.42;;;4.00;99.90;;;;;;5114031;27;20058;-72
2023/04/12 05:12:28;;;;;;;8.85;1.70;;;4.00;99.90;;;;;;5132872;27;20111;-73
2023/04/12 05:14:54;;;;;;;12.07;2.00;;;4.10;99.90;;;;;;5132845;27;20019;-77
2023/04/12 05:17:20;;;;;;;12.57;1.98;;;4.00;99.90;;;;;;5114766;27;20366;-73
2023/04/12 05:19:45;;;;;;;11.57;2.20;;;4.20;99.90;;;;;;5133414;27;20442;-74
2023/04/12 05:22:12;;;;;;;12.60;2.20;;;4.20;99.90;;;;;;5132894;27;20084;-74
2023/04/12 05:24:38;;;;;;;11.77;1.80;;;4.20;99.90;;;;;;5115155;27;20432;-73
2023/04/12 05:27:04;;;;;;;13.38;2.35;;;4.20;99.90;;;;;;5133679;27;20023;-73
2023/04/12 05:29:30;;;;;;;9.70;2.15;;;4.20;99.90;;;;;;5134033;27;20020;-73
2023/04/12 05:31:57;;;;;;;6.18;1.67;;;4.20;99.90;;;;;;5132579;27;20024;-75
2023/04/12 05:34:23;;;;;;;9.20;2.17;;;4.30;99.90;;;;;;5133158;27;20364;-73
2023/04/12 05:36:49;;;;;;;15.55;2.10;;;4.30;99.90;;;;;;5132984;27;20116;-72
2023/04/12 05:39:15;;;;;;;7.03;1.52;;;4.30;99.90;;;;;;5132469;27;20039;-72
2023/04/12 05:41:41;;;;;;;9.25;1.50;;;4.30;99.90;;;;;;5133163;27;20139;-72
2023/04/12 05:44:06;;;;;;;11.35;1.75;;;4.40;99.90;;;;;;5132454;27;20030;-73
2023/04/12 05:46:32;;;;;;;14.57;2.38;;;4.40;99.90;;;;;;5114429;27;20092;-72
2023/04/12 05:48:58;;;;;;;13.85;2.22;;;4.50;99.90;;;;;;5131926;27;20102;-77
2023/04/12 05:51:24;;;;;;;9.98;2.05;;;4.60;99.90;;;;;;5132061;27;20027;-73
2023/04/12 05:53:50;;;;;;;12.05;2.28;;;4.60;99.90;;;;;;5132474;27;20102;-73
2023/04/12 05:56:16;;;;;;;12.38;2.08;;;4.70;99.90;;;;;;5131851;27;20582;-73
2023/04/12 05:58:42;;;;;;;10.45;1.98;;;4.80;99.90;;;;;;5132747;27;20027;-73
2023/04/12 06:01:08;;;;;;;14.05;2.75;;;4.80;99.90;;;;;;5131497;27;20035;-73
2023/04/12 06:03:33;;;;;;;13.18;1.92;;;4.90;99.90;;;;;;5132284;27;20476;-73
2023/04/12 06:06:01;;;;;;;18.80;3.13;;;4.90;99.90;;;;;;5131574;27;20547;-77
2023/04/12 06:08:28;;;;;;;15.05;2.75;;;5.00;99.90;;;;;;5132146;27;20095;-73
2023/04/12 06:10:54;;;;;;;17.58;3.05;;;5.10;99.90;;;;;;5131656;27;20329;-73
2023/04/12 06:13:20;;;;;;;18.67;3.38;;;5.10;99.90;;;;;;5131364;27;20098;-73
2023/04/12 06:15:45;;;;;;;14.95;2.28;;;5.10;99.90;;;;;;5132065;27;20107;-73
2023/04/12 06:18:11;;;;;;;9.77;1.88;;;5.10;99.90;;;;;;5131741;27;20114;-73
2023/04/12 06:20:40;;;;;;;16.25;2.63;;;5.20;99.90;;;;;;5132307;27;20035;-72
2023/04/12 06:23:06;;;;;;;11.05;2.42;;;5.20;99.90;;;;;;5130748;27;20069;-74
2023/04/12 06:25:33;;;;;;;12.77;2.70;;;5.20;99.90;;;;;;5131785;27;20440;-72
2023/04/12 06:27:58;;;;;;;8.13;2.45;;;5.10;99.90;;;;;;5131617;27;20034;-76
2023/04/12 06:30:24;;;;;;;14.02;2.47;;;5.20;99.90;;;;;;5131215;27;20027;-71
2023/04/12 06:32:50;;;;;;;11.00;2.20;;;5.20;99.90;;;;;;5131735;27;20050;-73
2023/04/12 06:35:16;;;;;;;6.75;1.92;;;5.30;99.90;;;;;;5112784;27;20023;-73
2023/04/12 06:37:42;;;;;;;9.65;1.98;;;5.20;99.90;;;;;;5131508;27;20027;-72
2023/04/12 06:40:08;;;;;;;9.35;2.33;;;5.30;99.90;;;;;;5130917;27;20038;-73
2023/04/12 06:42:33;;;;;;;8.20;2.28;;;5.30;99.90;;;;;;5131959;27;20405;-72
2023/04/12 06:44:59;;;;;;;9.88;1.83;;;5.30;99.90;;;;;;5131231;27;20091;-75
2023/04/12 06:47:25;;;;;;;12.15;2.00;;;5.20;99.90;;;;;;5130995;27;20328;-72
2023/04/12 06:49:51;;;;;;;7.47;1.92;;;5.30;99.90;;;;;;5131322;27;20026;-73
2023/04/12 06:52:17;;;;;;;10.43;2.08;;;5.30;99.90;;;;;;5130975;27;20024;-73
2023/04/12 06:54:43;;;;;;;12.18;2.00;;;5.20;99.90;;;;;;5131885;28;20509;-72
2023/04/12 06:57:10;;;;;;;7.38;1.30;;;5.30;99.90;;;;;;5130941;28;20023;-73
2023/04/12 06:59:35;;;;;;;12.23;2.10;;;5.20;99.90;;;;;;5112929;28;20447;-73
2023/04/12 07:02:01;;;;;;;11.85;2.08;;;5.10;99.90;;;;;;5131001;28;20027;-77
2023/04/12 07:04:27;;;;;;;12.13;2.08;;;5.10;99.90;;;;;;5131087;28;20019;-75
2023/04/12 07:06:52;;;;;;;10.60;1.95;;;5.10;99.90;;;;;;5131486;28;20110;-76
2023/04/12 07:09:18;;;;;;;3.75;1.30;;;5.00;99.90;;;;;;5131035;28;20191;-78
2023/04/12 07:11:44;;;;;;;5.93;1.55;;;5.00;99.90;;;;;;5131210;28;20071;-77
2023/04/12 07:14:10;;;;;;;6.28;1.27;;;4.90;99.90;;;;;;5130908;28;20086;-77
2023/04/12 07:16:36;;;;;;;9.25;1.63;;;4.80;99.90;;;;;;5131702;28;20526;-77
2023/04/12 07:19:01;;;;;;;9.63;1.65;;;4.80;99.90;;;;;;5131026;28;20023;-77
2023/04/12 07:21:27;;;;;;;8.05;1.48;;;4.80;99.90;;;;;;5130590;28;20031;-77
2023/04/12 07:23:53;;;;;;;7.32;1.60;;;4.80;99.90;;;;;;5133355;27;20357;-77
2023/04/12 07:26:20;;;;;;;12.65;2.33;;;4.70;99.90;;;;;;5134791;27;20016;-77
2023/04/12 07:28:46;;;;;;;6.55;1.63;;;4.70;99.90;;;;;;5135421;27;20031;-77
2023/04/12 07:31:12;;;;;;;7.80;1.70;;;4.70;99.90;;;;;;5134741;27;20042;-78
2023/04/12 07:33:38;;;;;;;5.53;1.40;;;4.60;99.90;;;;;;5135093;27;20029;-77
2023/04/12 07:36:04;;;;;;;7.32;1.58;;;4.70;99.90;;;;;;5135256;27;20027;-80
2023/04/12 07:38:30;;;;;;;4.30;1.20;;;4.60;99.90;;;;;;5116306;27;20083;-76
2023/04/12 07:40:56;;;;;;;5.93;1.40;;;4.70;99.90;;;;;;5134691;27;20448;-75
2023/04/12 07:43:22;;;;;;;5.65;1.50;;;4.70;99.90;;;;;;5134567;27;20034;-75
2023/04/12 07:45:48;;;;;;;9.63;1.83;;;4.70;99.90;;;;;;5134267;27;20025;-75
2023/04/12 07:48:14;;;;;;;3.17;1.63;;;4.60;99.90;;;;;;5138099;27;20042;-75
2023/04/12 07:50:40;;;;;;;4.55;1.30;;;4.70;99.90;;;;;;5155547;27;20117;-75
2023/04/12 07:53:23;;;;;;;5.00;1.58;;;4.70;99.90;;;;;;5155113;27;20046;-79
2023/04/12 07:55:49;;;;;;;3.10;1.55;;;4.80;99.90;;;;;;5155468;27;20073;-75
2023/04/12 07:58:16;;;;;;;7.20;1.73;;;4.80;99.90;;;;;;5132661;27;20095;-75
2023/04/12 08:00:43;;;;;;;3.60;1.20;;;4.80;99.90;;;;;;5144625;27;20037;-75
2023/04/12 08:03:14;;;;;;;3.78;1.27;;;4.80;99.90;;;;;;5147124;27;20031;-75
2023/04/12 08:05:40;;;;;;;5.97;1.30;;;4.80;99.90;;;;;;5138206;27;20019;-74
2023/04/12 08:08:08;;;;;;;7.35;1.50;;;4.80;99.90;;;;;;5143718;27;20120;-78
2023/04/12 08:10:36;;;;;;;6.03;1.25;;;4.90;99.90;;;;;;5145326;27;20026;-74
2023/04/12 08:13:02;;;;;;;6.88;1.10;;;5.00;99.90;;;;;;5143630;27;20079;-74
2023/04/12 08:15:28;;;;;;;8.20;1.40;;;4.90;99.90;;;;;;5143204;27;20025;-74
2023/04/12 08:17:54;;;;;;;3.17;1.98;;;4.90;99.90;;;;;;5133973;27;20098;-74
2023/04/12 08:20:20;;;;;;;5.18;1.20;;;5.00;99.90;;;;;;5133735;27;20038;-75
2023/04/12 08:22:47;;;;;;;4.45;1.02;;;5.10;99.90;;;;;;5133668;27;20047;-75
2023/04/12 08:25:13;;;;;;;2.92;1.40;;;5.20;99.90;;;;;;5133475;27;20205;-74
2023/04/12 08:27:41;;;;;;;3.47;1.40;;;5.20;99.90;;;;;;5134122;27;20404;-74
2023/04/12 08:30:08;;;;;;;9.30;1.63;;;5.20;99.90;;;;;;5133968;27;20380;-77
2023/04/12 08:32:34;;;;;;;8.90;2.35;;;5.30;99.90;;;;;;5134158;27;20079;-74
2023/04/12 08:35:01;;;;;;;4.57;1.25;;;5.40;99.90;;;;;;5132444;27;20035;-74
2023/04/12 08:37:26;;;;;;;3.55;1.60;;;5.40;99.90;;;;;;5133202;27;20027;-73
2023/04/12 08:39:52;;;;;;;4.35;1.25;;;5.50;99.90;;;;;;5133503;27;20337;-74
2023/04/12 08:42:18;;;;;;;5.05;1.10;;;5.60;99.90;;;;;;5133160;27;20069;-74
2023/04/12 08:44:44;;;;;;;1.98;1.02;;;5.70;99.90;;;;;;5133759;27;20042;-73
2023/04/12 08:47:10;;;;;;;3.78;0.70;;;5.80;99.90;;;;;;5132918;27;20030;-76
2023/04/12 08:49:36;;;;;;;3.00;1.27;;;5.90;99.90;;;;;;5133583;27;20054;-74
2023/04/12 08:52:06;;;;;;;2.15;0.70;;;6.00;99.90;;;;;;5133874;27;20023;-74
2023/04/12 08:54:36;;;;;;;1.33;0.50;;;6.00;99.90;;;;;;5133175;27;20507;-74
2023/04/12 08:57:06;;;;;;;3.70;0.90;;;5.90;99.90;;;;;;5133629;27;20386;-75
2023/04/12 08:59:37;;;;;;;0.93;0.70;;;5.90;99.90;;;;;;5114179;27;20420;-74
2023/04/12 09:02:03;;;;;;;1.88;0.82;;;5.90;99.90;;;;;;5133502;27;20027;-73
2023/04/12 09:04:28;;;;;;;4.38;0.93;;;6.00;99.90;;;;;;5132862;27;20019;-73
2023/04/12 09:06:54;;;;;;;1.85;1.00;;;6.10;99.90;;;;;;5133564;27;20031;-73
2023/04/12 09:09:40;;;;;;;3.35;0.90;;;6.20;99.90;;;;;;5132760;27;20031;-72
2023/04/12 09:12:07;;;;;;;1.67;0.80;;;6.30;99.90;;;;;;5147181;27;20022;-73
2023/04/12 09:14:33;;;;;;;4.40;1.33;;;6.30;99.90;;;;;;5153430;27;20412;-73
2023/04/12 09:16:58;;;;;;;5.57;1.27;;;6.30;99.90;;;;;;5154009;27;20023;-74
2023/04/12 09:19:32;;;;;;;4.85;1.40;;;6.40;99.90;;;;;;5153342;27;20460;-73
2023/04/12 09:21:57;;;;;;;6.47;2.13;;;6.50;99.90;;;;;;5129301;27;20031;-74
2023/04/12 09:24:23;;;;;;;2.78;1.08;;;6.60;99.90;;;;;;5133361;27;20513;-73
2023/04/12 09:27:04;;;;;;;5.07;1.27;;;6.70;99.90;;;;;;5133407;27;20501;-74
2023/04/12 09:29:30;;;;;;;3.90;1.00;;;6.90;99.90;;;;;;5151727;27;20771;-74
2023/04/12 09:32:07;;;;;;;3.53;1.00;;;7.10;99.90;;;;;;5153538;27;20022;-75
2023/04/12 09:34:54;;;;;;;3.60;0.88;;;7.10;99.90;;;;;;5134187;27;20098;-74
2023/04/12 09:37:20;;;;;;;6.57;1.27;;;7.20;99.90;;;;;;5153006;27;20078;-74
2023/04/12 09:39:46;;;;;;;3.67;0.80;;;7.30;99.90;;;;;;5153598;27;20102;-73
2023/04/12 09:42:15;;;;;;;6.55;1.50;;;7.40;99.90;;;;;;5153252;27;20021;-78
2023/04/12 09:44:41;;;;;;;7.68;2.33;;;7.40;99.90;;;;;;5153650;27;20030;-74
2023/04/12 09:47:07;;;;;;;12.30;2.53;;;7.30;99.90;;;;;;5146694;27;20027;-74
2023/04/12 09:49:40;;;;;;;5.03;1.52;;;7.30;99.90;;;;;;5143680;27;20561;-74
2023/04/12 09:52:07;;;;;;;5.82;1.77;;;7.20;99.90;;;;;;5141291;27;20030;-75
2023/04/12 09:54:41;;;;;;;6.65;2.20;;;7.20;99.90;;;;;;5149632;27;20087;-74
2023/04/12 09:57:10;;;;;;;7.00;1.92;;;7.30;99.90;;;;;;5148920;27;20495;-74
2023/04/12 09:59:40;;;;;;;6.63;2.10;;;7.30;99.90;;;;;;5152542;27;20023;-73
2023/04/12 10:02:12;;;;;;;8.48;2.17;;;7.30;99.90;;;;;;5153142;27;20049;-72
2023/04/12 10:04:39;;;;;;;7.18;1.90;;;7.30;99.90;;;;;;5151805;27;20037;-75
2023/04/12 10:07:05;;;;;;;10.32;1.90;;;7.20;99.90;;;;;;5152105;27;20148;-74
2023/04/12 10:09:33;;;;;;;8.90;2.03;;;7.20;99.90;;;;;;5151613;27;20030;-75
2023/04/12 10:12:02;;;;;;;10.07;2.10;;;7.30;99.90;;;;;;5151990;27;20038;-75
2023/04/12 10:14:29;;;;;;;9.38;1.50;;;7.30;99.90;;;;;;5151336;27;20026;-73
2023/04/12 10:17:00;;;;;;;3.67;1.10;;;7.40;99.90;;;;;;5151645;27;20026;-74
2023/04/12 10:19:27;;;;;;;5.85;1.88;;;7.50;99.90;;;;;;5151628;27;20023;-74
2023/04/12 10:21:57;;;;;;;4.72;1.17;;;7.80;99.90;;;;;;5152077;27;20037;-77
2023/04/12 10:24:24;;;;;;;6.90;1.15;;;7.80;99.90;;;;;;5151321;27;20102;-74
2023/04/12 10:26:54;;;;;;;5.32;1.30;;;7.80;99.90;;;;;;5133681;27;20064;-74
2023/04/12 10:29:24;;;;;;;3.05;1.00;;;7.90;99.90;;;;;;5138198;27;20549;-75
2023/04/12 10:31:51;;;;;;;4.57;1.50;;;8.00;99.90;;;;;;5131467;27;20035;-73
2023/04/12 10:34:17;;;;;;;3.75;1.10;;;7.90;99.90;;;;;;5130761;27;20143;-75
2023/04/12 10:37:00;;;;;;;5.72;1.10;;;7.80;99.90;;;;;;5131700;27;20133;-74
2023/04/12 10:39:40;;;;;;;3.95;1.40;;;8.00;99.90;;;;;;5131454;27;20023;-75
2023/04/12 10:42:18;;;;;;;4.03;1.00;;;8.00;99.90;;;;;;5131317;27;20031;-75
2023/04/12 10:44:44;;;;;;;3.85;1.20;;;7.90;99.90;;;;;;5131685;27;20076;-74
2023/04/12 10:47:10;;;;;;;5.25;1.75;;;7.80;99.90;;;;;;5131091;27;20219;-75
2023/04/12 10:49:36;;;;;;;4.10;0.93;;;7.80;99.90;;;;;;5130968;27;20360;-76
2023/04/12 10:52:08;;;;;;;4.57;1.33;;;7.80;99.90;;;;;;5131561;27;20106;-74
2023/04/12 10:54:35;;;;;;;3.80;1.15;;;8.00;99.90;;;;;;5130685;28;20602;-75
2023/04/12 10:57:04;;;;;;;3.80;1.23;;;8.10;99.90;;;;;;5131597;28;20059;-73
2023/04/12 10:59:55;;;;;;;4.57;0.60;;;8.10;99.90;;;;;;5136342;27;20019;-74
2023/04/12 11:02:21;;;;;;;2.10;0.88;;;8.10;99.90;;;;;;5151704;27;20034;-74
2023/04/12 11:05:09;;;;;;;2.88;0.93;;;8.10;99.90;;;;;;5152226;27;20344;-74
2023/04/12 11:07:39;;;;;;;4.30;1.13;;;8.20;99.90;;;;;;5151536;27;20034;-74
2023/04/12 11:10:16;;;;;;;2.50;1.00;;;8.20;99.90;;;;;;5151869;27;20041;-74
2023/04/12 11:12:48;;;;;;;4.20;0.75;;;8.20;99.90;;;;;;5152189;27;20045;-73
2023/04/12 11:15:14;;;;;;;2.15;0.77;;;8.20;99.90;;;;;;5151964;27;20431;-73
2023/04/12 11:17:39;;;;;;;2.22;0.95;;;8.30;99.90;;;;;;5151085;27;20042;-73
2023/04/12 11:20:10;;;;;;;2.60;1.10;;;8.40;99.90;;;;;;5151947;27;20030;-73
2023/04/12 11:22:38;;;;;;;2.88;1.30;;;8.40;99.90;;;;;;5151336;27;20069;-74
2023/04/12 11:25:04;;;;;;;2.72;1.10;;;8.40;99.90;;;;;;5151856;27;20455;-74
2023/04/12 11:27:31;;;;;;;4.63;1.42;;;8.50;99.90;;;;;;5151601;27;20381;-74
2023/04/12 11:29:58;;;;;;;5.38;1.30;;;8.60;99.90;;;;;;5151851;27;20128;-74
2023/04/12 11:32:29;;;;;;;2.08;1.10;;;8.70;99.90;;;;;;5150828;27;20105;-74
2023/04/12 11:34:57;;;;;;;3.17;1.08;;;8.90;99.90;;;;;;5151598;27;20501;-73
2023/04/12 11:37:25;;;;;;;5.15;1.20;;;8.90;99.90;;;;;;5132157;27;20119;-75
2023/04/12 11:39:53;;;;;;;4.05;0.90;;;8.90;99.90;;;;;;5151550;27;20058;-75
2023/04/12 11:42:21;;;;;;;6.53;2.00;;;8.70;99.90;;;;;;5151321;27;20103;-79
2023/04/12 11:44:47;;;;;;;5.50;1.50;;;8.80;99.90;;;;;;5151413;27;20027;-73
2023/04/12 11:47:21;;;;;;;3.08;1.10;;;8.70;99.90;;;;;;5151714;27;20118;-74
2023/04/12 11:49:49;;;;;;;4.22;1.13;;;8.80;99.90;;;;;;5151541;27;20102;-75
2023/04/12 11:52:16;;;;;;;4.40;1.20;;;8.80;99.90;;;;;;5151762;27;20023;-74
2023/04/12 11:54:44;;;;;;;3.53;1.45;;;8.80;99.90;;;;;;5148279;27;20037;-75
2023/04/12 11:57:15;;;;;;;1.77;0.95;;;8.90;99.90;;;;;;5124361;27;20019;-73
2023/04/12 11:59:46;;;;;;;4.07;1.65;;;8.90;99.90;;;;;;5150492;27;20042;-76
2023/04/12 12:02:13;;;;;;;3.30;1.02;;;8.90;99.90;;;;;;5139797;27;20046;-75
2023/04/12 12:04:47;;;;;;;2.95;1.77;;;8.80;99.90;;;;;;5130251;28;20557;-74
2023/04/12 12:07:15;;;;;;;3.13;1.23;;;8.80;99.90;;;;;;5130024;28;20031;-75
2023/04/12 12:09:42;;;;;;;2.83;0.90;;;8.90;99.90;;;;;;5131898;27;20031;-74
2023/04/12 12:12:10;;;;;;;4.32;1.42;;;8.90;99.90;;;;;;5134141;27;20092;-74
2023/04/12 12:14:36;;;;;;;4.35;1.48;;;8.80;99.90;;;;;;5133187;27;20047;-75
2023/04/12 12:17:09;;;;;;;3.58;1.30;;;8.80;99.90;;;;;;5133930;27;20115;-75
2023/04/12 12:19:45;;;;;;;2.95;1.17;;;8.90;99.90;;;;;;5132808;27;20348;-74
2023/04/12 12:22:15;;;;;;;4.43;1.20;;;8.80;99.90;;;;;;5133853;27;20054;-75
2023/04/12 12:24:51;;;;;;;3.50;1.05;;;8.80;99.90;;;;;;5133255;27;20215;-74
2023/04/12 12:27:36;;;;;;;4.55;1.15;;;8.80;99.90;;;;;;5133911;27;20067;-75
2023/04/12 12:30:06;;;;;;;5.88;1.10;;;8.70;99.90;;;;;;5133977;27;20026;-75
2023/04/12 12:32:33;;;;;;;1.88;0.88;;;8.70;99.90;;;;;;5132863;27;20471;-75
2023/04/12 12:35:00;;;;;;;1.10;0.90;;;8.70;99.90;;;;;;5133464;27;20474;-75
2023/04/12 12:37:27;;;;;;;2.30;1.00;;;8.70;99.90;;;;;;5132763;27;20160;-75
2023/04/12 12:40:12;;;;;;;3.75;1.63;;;8.70;99.90;;;;;;5133411;27;20062;-74
2023/04/12 12:42:50;;;;;;;2.35;1.00;;;8.80;99.90;;;;;;5136169;27;20027;-76
2023/04/12 12:45:17;;;;;;;2.75;1.50;;;8.80;99.90;;;;;;5139090;27;20481;-75
2023/04/12 12:48:01;;;;;;;1.90;0.80;;;8.90;99.90;;;;;;5143204;27;20035;-74
2023/04/12 12:50:31;;;;;;;2.10;0.98;;;8.70;99.90;;;;;;5147587;27;20042;-76
2023/04/12 12:52:59;;;;;;;1.65;1.30;;;8.70;99.90;;;;;;5147600;27;20470;-75
2023/04/12 12:55:25;;;;;;;2.50;1.10;;;8.60;99.90;;;;;;5141633;27;20022;-75
2023/04/12 12:57:53;;;;;;;2.67;1.33;;;8.50;99.90;;;;;;5144311;27;20042;-75
2023/04/12 13:00:20;;;;;;;3.75;1.33;;;8.50;99.90;;;;;;5127109;27;20118;-75